sensor_id;sensor_type;location;lat;lon;timestamp;pressure;altitude;pressure_sealevel;temperature;humidity
54194;BME280;40102;50.906;6.972;2023-09-08T00:01:49;101090.91;;;22.55;63.18
54194;BME280;40102;50.906;6.972;2023-09-08T00:04:14;101094.66;;;22.54;63.31
54194;BME280;40102;50.906;6.972;2023-09-08T00:06:40;101099.78;;;22.57;63.53
54194;BME280;40102;50.906;6.972;2023-09-08T00:09:06;101093.47;;;22.57;62.89
54194;BME280;40102;50.906;6.972;2023-09-08T00:11:32;101093.22;;;22.33;64.09
54194;BME280;40102;50.906;6.972;2023-09-08T00:14:00;101093.75;;;22.09;65.25
54194;BME280;40102;50.906;6.972;2023-09-08T00:16:26;101092.56;;;21.84;65.82
54194;BME280;40102;50.906;6.972;2023-09-08T00:18:51;101087.47;;;21.61;66.91
54194;BME280;40102;50.906;6.972;2023-09-08T00:21:16;101078.75;;;21.48;67.39
54194;BME280;40102;50.906;6.972;2023-09-08T00:23:42;101078.34;;;21.43;68.26
54194;BME280;40102;50.906;6.972;2023-09-08T00:26:07;101080.66;;;21.38;67.95
54194;BME280;40102;50.906;6.972;2023-09-08T00:28:32;101075.06;;;21.30;68.61
54194;BME280;40102;50.906;6.972;2023-09-08T00:30:58;101073.66;;;21.26;68.87
54194;BME280;40102;50.906;6.972;2023-09-08T00:33:25;101070.38;;;21.22;68.91
54194;BME280;40102;50.906;6.972;2023-09-08T00:35:51;101074.94;;;21.22;69.52
54194;BME280;40102;50.906;6.972;2023-09-08T00:38:16;101073.91;;;21.42;69.40
54194;BME280;40102;50.906;6.972;2023-09-08T00:40:42;101082.47;;;21.57;68.85
54194;BME280;40102;50.906;6.972;2023-09-08T00:43:07;101084.03;;;21.59;68.83
54194;BME280;40102;50.906;6.972;2023-09-08T00:45:38;101088.72;;;21.67;68.45
54194;BME280;40102;50.906;6.972;2023-09-08T00:48:04;101082.41;;;21.76;68.23
54194;BME280;40102;50.906;6.972;2023-09-08T00:50:29;101079.69;;;21.76;68.12
54194;BME280;40102;50.906;6.972;2023-09-08T00:52:58;101083.97;;;21.79;68.08
54194;BME280;40102;50.906;6.972;2023-09-08T00:55:24;101078.81;;;21.76;68.34
54194;BME280;40102;50.906;6.972;2023-09-08T00:57:50;101089.19;;;21.62;68.47
54194;BME280;40102;50.906;6.972;2023-09-08T01:00:15;101086.94;;;21.48;69.05
54194;BME280;40102;50.906;6.972;2023-09-08T01:02:41;101081.06;;;21.43;69.24
54194;BME280;40102;50.906;6.972;2023-09-08T01:05:06;101079.66;;;21.39;68.83
54194;BME280;40102;50.906;6.972;2023-09-08T01:07:32;101078.66;;;21.11;69.97
54194;BME280;40102;50.906;6.972;2023-09-08T01:09:59;101077.66;;;20.83;71.44
54194;BME280;40102;50.906;6.972;2023-09-08T01:12:29;101077.69;;;20.64;72.34
54194;BME280;40102;50.906;6.972;2023-09-08T01:14:54;101080.94;;;20.48;73.23
54194;BME280;40102;50.906;6.972;2023-09-08T01:17:20;101080.03;;;20.38;74.07
54194;BME280;40102;50.906;6.972;2023-09-08T01:19:46;101077.22;;;20.40;73.68
54194;BME280;40102;50.906;6.972;2023-09-08T01:27:38;101084.72;;;20.26;74.61
54194;BME280;40102;50.906;6.972;2023-09-08T01:30:05;101083.13;;;20.14;74.54
54194;BME280;40102;50.906;6.972;2023-09-08T01:32:32;101085.38;;;20.09;74.96
54194;BME280;40102;50.906;6.972;2023-09-08T01:34:58;101082.69;;;20.09;74.89
54194;BME280;40102;50.906;6.972;2023-09-08T01:37:25;101089.38;;;20.05;75.12
54194;BME280;40102;50.906;6.972;2023-09-08T01:39:51;101090.19;;;19.96;75.41
54194;BME280;40102;50.906;6.972;2023-09-08T01:42:16;101085.03;;;19.93;75.70
54194;BME280;40102;50.906;6.972;2023-09-08T01:44:42;101077.75;;;19.93;75.55
54194;BME280;40102;50.906;6.972;2023-09-08T01:47:07;101079.75;;;19.91;75.49
54194;BME280;40102;50.906;6.972;2023-09-08T01:49:32;101072.00;;;19.87;75.10
54194;BME280;40102;50.906;6.972;2023-09-08T01:51:58;101069.84;;;19.81;75.56
54194;BME280;40102;50.906;6.972;2023-09-08T01:54:23;101060.94;;;19.69;76.43
54194;BME280;40102;50.906;6.972;2023-09-08T01:56:49;101055.38;;;19.50;77.05
54194;BME280;40102;50.906;6.972;2023-09-08T01:59:15;101060.03;;;19.38;77.69
54194;BME280;40102;50.906;6.972;2023-09-08T02:01:40;101058.84;;;19.31;78.27
54194;BME280;40102;50.906;6.972;2023-09-08T02:04:06;101053.63;;;19.18;79.03
54194;BME280;40102;50.906;6.972;2023-09-08T02:06:31;101052.75;;;19.18;78.86
54194;BME280;40102;50.906;6.972;2023-09-08T02:08:56;101061.75;;;19.18;79.17
54194;BME280;40102;50.906;6.972;2023-09-08T02:11:22;101059.50;;;19.23;78.71
54194;BME280;40102;50.906;6.972;2023-09-08T02:13:47;101054.69;;;19.27;78.38
54194;BME280;40102;50.906;6.972;2023-09-08T02:16:16;101060.28;;;19.35;78.64
54194;BME280;40102;50.906;6.972;2023-09-08T02:18:42;101062.59;;;19.39;77.50
54194;BME280;40102;50.906;6.972;2023-09-08T02:21:08;101063.59;;;19.38;77.55
54194;BME280;40102;50.906;6.972;2023-09-08T02:23:33;101056.59;;;19.36;77.44
54194;BME280;40102;50.906;6.972;2023-09-08T02:25:58;101063.00;;;19.35;77.57
54194;BME280;40102;50.906;6.972;2023-09-08T02:28:24;101060.09;;;19.27;77.76
54194;BME280;40102;50.906;6.972;2023-09-08T02:30:50;101063.66;;;19.27;78.05
54194;BME280;40102;50.906;6.972;2023-09-08T02:33:15;101046.34;;;19.19;78.19
54194;BME280;40102;50.906;6.972;2023-09-08T02:35:40;101054.75;;;19.16;78.45
54194;BME280;40102;50.906;6.972;2023-09-08T02:38:06;101052.56;;;19.09;78.92
54194;BME280;40102;50.906;6.972;2023-09-08T02:40:32;101049.47;;;19.14;79.19
54194;BME280;40102;50.906;6.972;2023-09-08T02:43:00;101053.16;;;19.13;78.31
54194;BME280;40102;50.906;6.972;2023-09-08T02:45:25;101048.47;;;19.15;78.11
54194;BME280;40102;50.906;6.972;2023-09-08T02:47:51;101049.84;;;19.09;78.38
54194;BME280;40102;50.906;6.972;2023-09-08T02:50:16;101050.84;;;19.08;78.57
54194;BME280;40102;50.906;6.972;2023-09-08T02:52:41;101056.72;;;19.14;78.17
54194;BME280;40102;50.906;6.972;2023-09-08T02:55:07;101053.56;;;19.08;78.30
54194;BME280;40102;50.906;6.972;2023-09-08T02:57:33;101049.72;;;19.11;78.35
54194;BME280;40102;50.906;6.972;2023-09-08T02:59:59;101040.00;;;19.08;77.86
54194;BME280;40102;50.906;6.972;2023-09-08T03:02:25;101038.88;;;19.11;77.53
54194;BME280;40102;50.906;6.972;2023-09-08T03:04:51;101048.94;;;19.20;76.94
54194;BME280;40102;50.906;6.972;2023-09-08T03:07:16;101049.97;;;19.29;76.64
54194;BME280;40102;50.906;6.972;2023-09-08T03:09:42;101048.84;;;19.31;76.32
54194;BME280;40102;50.906;6.972;2023-09-08T03:12:07;101059.25;;;19.26;76.22
54194;BME280;40102;50.906;6.972;2023-09-08T03:14:33;101054.41;;;19.30;75.48
54194;BME280;40102;50.906;6.972;2023-09-08T03:16:58;101058.84;;;19.31;75.65
54194;BME280;40102;50.906;6.972;2023-09-08T03:19:24;101057.66;;;19.24;75.75
54194;BME280;40102;50.906;6.972;2023-09-08T03:21:49;101057.72;;;19.13;76.68
54194;BME280;40102;50.906;6.972;2023-09-08T03:24:14;101047.34;;;19.18;76.07
54194;BME280;40102;50.906;6.972;2023-09-08T03:26:40;101048.59;;;19.14;76.13
54194;BME280;40102;50.906;6.972;2023-09-08T03:29:06;101049.97;;;19.08;76.07
54194;BME280;40102;50.906;6.972;2023-09-08T03:31:31;101040.72;;;19.11;76.12
54194;BME280;40102;50.906;6.972;2023-09-08T03:33:57;101044.38;;;19.21;76.36
54194;BME280;40102;50.906;6.972;2023-09-08T03:36:22;101043.63;;;19.19;76.17
54194;BME280;40102;50.906;6.972;2023-09-08T03:38:48;101044.63;;;19.18;75.96
54194;BME280;40102;50.906;6.972;2023-09-08T03:41:14;101044.44;;;19.09;75.93
54194;BME280;40102;50.906;6.972;2023-09-08T03:43:40;101046.53;;;19.06;76.30
54194;BME280;40102;50.906;6.972;2023-09-08T03:46:05;101041.59;;;19.11;76.57
54194;BME280;40102;50.906;6.972;2023-09-08T03:48:30;101038.88;;;19.11;75.97
54194;BME280;40102;50.906;6.972;2023-09-08T03:50:56;101044.16;;;19.13;75.97
54194;BME280;40102;50.906;6.972;2023-09-08T03:53:21;101044.75;;;19.16;75.73
54194;BME280;40102;50.906;6.972;2023-09-08T03:55:47;101049.72;;;19.11;76.15
54194;BME280;40102;50.906;6.972;2023-09-08T03:58:12;101044.63;;;19.18;76.71
54194;BME280;40102;50.906;6.972;2023-09-08T04:00:37;101048.59;;;19.34;75.51
54194;BME280;40102;50.906;6.972;2023-09-08T04:03:03;101045.66;;;19.47;74.48
54194;BME280;40102;50.906;6.972;2023-09-08T04:05:29;101044.22;;;19.43;73.95
54194;BME280;40102;50.906;6.972;2023-09-08T04:07:54;101037.75;;;19.34;74.80
54194;BME280;40102;50.906;6.972;2023-09-08T04:10:20;101036.16;;;19.32;74.35
54194;BME280;40102;50.906;6.972;2023-09-08T04:12:45;101042.69;;;19.29;74.63
54194;BME280;40102;50.906;6.972;2023-09-08T04:15:11;101043.75;;;19.38;74.80
54194;BME280;40102;50.906;6.972;2023-09-08T04:17:37;101048.78;;;19.42;73.72
54194;BME280;40102;50.906;6.972;2023-09-08T04:20:04;101042.56;;;19.31;73.93
54194;BME280;40102;50.906;6.972;2023-09-08T04:22:31;101042.06;;;19.16;74.66
54194;BME280;40102;50.906;6.972;2023-09-08T04:24:56;101040.47;;;19.14;75.07
54194;BME280;40102;50.906;6.972;2023-09-08T04:27:22;101038.03;;;19.11;75.10
54194;BME280;40102;50.906;6.972;2023-09-08T04:29:48;101046.16;;;19.11;75.27
54194;BME280;40102;50.906;6.972;2023-09-08T04:32:13;101043.50;;;18.99;75.14
54194;BME280;40102;50.906;6.972;2023-09-08T04:34:40;101034.03;;;18.94;75.33
54194;BME280;40102;50.906;6.972;2023-09-08T04:37:06;101036.50;;;18.97;75.70
54194;BME280;40102;50.906;6.972;2023-09-08T04:39:32;101032.47;;;18.91;75.38
54194;BME280;40102;50.906;6.972;2023-09-08T04:41:58;101044.16;;;18.92;75.26
54194;BME280;40102;50.906;6.972;2023-09-08T04:44:23;101034.84;;;18.85;75.68
54194;BME280;40102;50.906;6.972;2023-09-08T04:46:49;101040.50;;;18.82;75.72
54194;BME280;40102;50.906;6.972;2023-09-08T04:49:14;101037.47;;;18.75;76.05
54194;BME280;40102;50.906;6.972;2023-09-08T04:51:40;101043.16;;;18.72;76.42
54194;BME280;40102;50.906;6.972;2023-09-08T04:54:05;101044.13;;;18.71;76.21
54194;BME280;40102;50.906;6.972;2023-09-08T04:56:30;101046.59;;;18.74;76.79
54194;BME280;40102;50.906;6.972;2023-09-08T04:58:56;101039.66;;;18.81;76.35
54194;BME280;40102;50.906;6.972;2023-09-08T05:01:23;101042.56;;;18.89;76.19
54194;BME280;40102;50.906;6.972;2023-09-08T05:03:48;101044.81;;;18.84;75.55
54194;BME280;40102;50.906;6.972;2023-09-08T05:06:14;101051.47;;;18.80;76.17
54194;BME280;40102;50.906;6.972;2023-09-08T05:08:39;101045.72;;;18.73;76.21
54194;BME280;40102;50.906;6.972;2023-09-08T05:11:05;101042.63;;;18.78;76.49
54194;BME280;40102;50.906;6.972;2023-09-08T05:13:30;101044.34;;;18.79;75.68
54194;BME280;40102;50.906;6.972;2023-09-08T05:15:56;101041.16;;;18.74;76.13
54194;BME280;40102;50.906;6.972;2023-09-08T05:18:28;101049.75;;;18.79;76.36
54194;BME280;40102;50.906;6.972;2023-09-08T05:20:53;101051.22;;;18.83;75.69
54194;BME280;40102;50.906;6.972;2023-09-08T05:23:19;101054.06;;;18.82;75.38
54194;BME280;40102;50.906;6.972;2023-09-08T05:25:44;101049.03;;;18.77;75.42
54194;BME280;40102;50.906;6.972;2023-09-08T05:28:10;101055.91;;;18.81;75.42
54194;BME280;40102;50.906;6.972;2023-09-08T05:30:36;101055.78;;;18.83;74.76
54194;BME280;40102;50.906;6.972;2023-09-08T05:33:01;101048.19;;;18.76;74.80
54194;BME280;40102;50.906;6.972;2023-09-08T05:35:26;101050.28;;;18.73;75.11
54194;BME280;40102;50.906;6.972;2023-09-08T05:37:52;101048.03;;;18.78;75.18
54194;BME280;40102;50.906;6.972;2023-09-08T05:40:17;101047.78;;;18.81;74.70
54194;BME280;40102;50.906;6.972;2023-09-08T05:42:44;101053.94;;;18.83;74.71
54194;BME280;40102;50.906;6.972;2023-09-08T05:45:09;101046.78;;;18.82;74.62
54194;BME280;40102;50.906;6.972;2023-09-08T05:47:36;101049.72;;;18.90;75.32
54194;BME280;40102;50.906;6.972;2023-09-08T05:50:02;101055.06;;;19.01;74.77
54194;BME280;40102;50.906;6.972;2023-09-08T05:52:27;101058.97;;;19.08;73.58
54194;BME280;40102;50.906;6.972;2023-09-08T05:54:53;101053.56;;;19.08;73.40
54194;BME280;40102;50.906;6.972;2023-09-08T05:57:19;101055.53;;;19.06;73.46
54194;BME280;40102;50.906;6.972;2023-09-08T05:59:44;101064.19;;;19.00;73.52
54194;BME280;40102;50.906;6.972;2023-09-08T06:02:10;101062.81;;;19.06;73.69
54194;BME280;40102;50.906;6.972;2023-09-08T06:04:35;101059.84;;;19.09;73.34
54194;BME280;40102;50.906;6.972;2023-09-08T06:07:01;101062.47;;;18.99;73.09
54194;BME280;40102;50.906;6.972;2023-09-08T06:09:26;101064.41;;;19.08;73.01
54194;BME280;40102;50.906;6.972;2023-09-08T06:11:52;101066.25;;;19.08;72.62
54194;BME280;40102;50.906;6.972;2023-09-08T06:14:17;101071.81;;;19.06;73.14
54194;BME280;40102;50.906;6.972;2023-09-08T06:16:43;101078.22;;;19.05;72.91
54194;BME280;40102;50.906;6.972;2023-09-08T06:19:08;101072.00;;;19.15;72.88
54194;BME280;40102;50.906;6.972;2023-09-08T06:21:33;101065.94;;;19.22;72.62
54194;BME280;40102;50.906;6.972;2023-09-08T06:24:01;101070.81;;;19.28;72.27
54194;BME280;40102;50.906;6.972;2023-09-08T06:26:27;101064.00;;;19.34;71.64
54194;BME280;40102;50.906;6.972;2023-09-08T06:28:52;101057.19;;;19.39;71.22
54194;BME280;40102;50.906;6.972;2023-09-08T06:31:17;101061.34;;;19.44;71.25
54194;BME280;40102;50.906;6.972;2023-09-08T06:33:43;101067.50;;;19.46;71.45
54194;BME280;40102;50.906;6.972;2023-09-08T06:36:08;101067.91;;;19.41;71.78
54194;BME280;40102;50.906;6.972;2023-09-08T06:38:34;101064.19;;;19.42;71.72
54194;BME280;40102;50.906;6.972;2023-09-08T06:40:59;101060.63;;;19.41;71.76
54194;BME280;40102;50.906;6.972;2023-09-08T06:43:26;101068.50;;;19.45;71.88
54194;BME280;40102;50.906;6.972;2023-09-08T06:45:51;101066.09;;;19.51;71.60
54194;BME280;40102;50.906;6.972;2023-09-08T06:48:16;101071.88;;;19.58;71.63
54194;BME280;40102;50.906;6.972;2023-09-08T06:50:42;101069.88;;;19.60;71.34
54194;BME280;40102;50.906;6.972;2023-09-08T06:53:07;101070.75;;;19.60;71.51
54194;BME280;40102;50.906;6.972;2023-09-08T06:55:33;101076.19;;;19.60;71.58
54194;BME280;40102;50.906;6.972;2023-09-08T06:57:58;101073.47;;;19.60;71.50
54194;BME280;40102;50.906;6.972;2023-09-08T07:00:24;101078.34;;;19.66;71.72
54194;BME280;40102;50.906;6.972;2023-09-08T07:02:49;101073.84;;;19.77;71.28
54194;BME280;40102;50.906;6.972;2023-09-08T07:05:15;101067.59;;;19.86;70.44
54194;BME280;40102;50.906;6.972;2023-09-08T07:07:41;101079.19;;;19.97;70.84
54194;BME280;40102;50.906;6.972;2023-09-08T07:10:07;101067.94;;;20.02;70.25
54194;BME280;40102;50.906;6.972;2023-09-08T07:12:34;101065.09;;;20.13;70.02
54194;BME280;40102;50.906;6.972;2023-09-08T07:14:59;101062.28;;;20.24;68.87
54194;BME280;40102;50.906;6.972;2023-09-08T07:17:25;101063.72;;;20.28;68.51
54194;BME280;40102;50.906;6.972;2023-09-08T07:19:51;101069.28;;;20.27;69.51
54194;BME280;40102;50.906;6.972;2023-09-08T07:22:17;101061.56;;;20.22;70.42
54194;BME280;40102;50.906;6.972;2023-09-08T07:24:42;101079.88;;;20.30;70.85
54194;BME280;40102;50.906;6.972;2023-09-08T07:27:11;101071.50;;;20.43;70.02
54194;BME280;40102;50.906;6.972;2023-09-08T07:29:40;101075.94;;;20.53;69.81
54194;BME280;40102;50.906;6.972;2023-09-08T07:32:06;101077.69;;;20.64;69.31
54194;BME280;40102;50.906;6.972;2023-09-08T07:34:31;101074.69;;;20.77;68.85
54194;BME280;40102;50.906;6.972;2023-09-08T07:36:57;101078.81;;;20.90;68.57
54194;BME280;40102;50.906;6.972;2023-09-08T07:39:22;101079.81;;;20.99;68.16
54194;BME280;40102;50.906;6.972;2023-09-08T07:41:48;101078.66;;;21.01;67.84
54194;BME280;40102;50.906;6.972;2023-09-08T07:44:13;101072.34;;;21.01;67.94
54194;BME280;40102;50.906;6.972;2023-09-08T07:46:38;101074.34;;;21.09;67.90
54194;BME280;40102;50.906;6.972;2023-09-08T07:49:04;101076.94;;;21.10;68.53
54194;BME280;40102;50.906;6.972;2023-09-08T07:51:29;101076.91;;;21.20;67.84
54194;BME280;40102;50.906;6.972;2023-09-08T07:53:56;101072.66;;;21.27;66.92
54194;BME280;40102;50.906;6.972;2023-09-08T07:56:21;101071.50;;;21.29;67.18
54194;BME280;40102;50.906;6.972;2023-09-08T07:58:47;101077.50;;;21.33;67.70
54194;BME280;40102;50.906;6.972;2023-09-08T08:01:13;101076.06;;;21.39;67.61
54194;BME280;40102;50.906;6.972;2023-09-08T08:03:39;101064.75;;;21.43;66.79
54194;BME280;40102;50.906;6.972;2023-09-08T08:06:05;101064.16;;;21.49;65.75
54194;BME280;40102;50.906;6.972;2023-09-08T08:08:31;101063.00;;;21.52;67.12
54194;BME280;40102;50.906;6.972;2023-09-08T08:10:56;101067.59;;;21.51;65.87
54194;BME280;40102;50.906;6.972;2023-09-08T08:13:22;101069.84;;;21.56;65.18
54194;BME280;40102;50.906;6.972;2023-09-08T08:15:47;101069.00;;;21.55;65.19
54194;BME280;40102;50.906;6.972;2023-09-08T08:18:13;101065.69;;;21.61;64.78
54194;BME280;40102;50.906;6.972;2023-09-08T08:20:39;101072.84;;;21.62;65.94
54194;BME280;40102;50.906;6.972;2023-09-08T08:23:05;101061.09;;;21.62;65.21
54194;BME280;40102;50.906;6.972;2023-09-08T08:25:31;101059.66;;;21.67;64.33
54194;BME280;40102;50.906;6.972;2023-09-08T08:27:58;101066.63;;;21.80;64.79
54194;BME280;40102;50.906;6.972;2023-09-08T08:30:25;101064.59;;;21.82;65.12
54194;BME280;40102;50.906;6.972;2023-09-08T08:32:50;101060.44;;;21.87;65.79
54194;BME280;40102;50.906;6.972;2023-09-08T08:35:17;101067.16;;;21.93;63.27
54194;BME280;40102;50.906;6.972;2023-09-08T08:37:42;101063.41;;;22.04;63.64
54194;BME280;40102;50.906;6.972;2023-09-08T08:40:10;101063.81;;;22.09;65.29
54194;BME280;40102;50.906;6.972;2023-09-08T08:42:40;101071.53;;;22.13;64.88
54194;BME280;40102;50.906;6.972;2023-09-08T08:45:06;101062.03;;;22.17;64.76
54194;BME280;40102;50.906;6.972;2023-09-08T08:47:32;101059.56;;;22.24;65.99
54194;BME280;40102;50.906;6.972;2023-09-08T08:49:58;101060.81;;;22.29;66.15
54194;BME280;40102;50.906;6.972;2023-09-08T08:52:26;101063.78;;;22.36;65.35
54194;BME280;40102;50.906;6.972;2023-09-08T08:54:51;101064.34;;;22.40;64.41
54194;BME280;40102;50.906;6.972;2023-09-08T08:57:17;101058.97;;;22.48;63.08
54194;BME280;40102;50.906;6.972;2023-09-08T08:59:43;101056.50;;;22.54;62.45
54194;BME280;40102;50.906;6.972;2023-09-08T09:02:11;101062.72;;;22.65;63.70
54194;BME280;40102;50.906;6.972;2023-09-08T09:04:37;101055.94;;;22.69;62.51
54194;BME280;40102;50.906;6.972;2023-09-08T09:07:04;101061.94;;;22.72;62.69
54194;BME280;40102;50.906;6.972;2023-09-08T09:09:31;101062.50;;;22.76;64.55
54194;BME280;40102;50.906;6.972;2023-09-08T09:11:56;101059.78;;;22.76;64.74
54194;BME280;40102;50.906;6.972;2023-09-08T09:14:22;101059.63;;;22.77;63.51
54194;BME280;40102;50.906;6.972;2023-09-08T09:16:51;101051.84;;;22.82;63.71
54194;BME280;40102;50.906;6.972;2023-09-08T09:19:21;101060.56;;;22.86;63.81
54194;BME280;40102;50.906;6.972;2023-09-08T09:21:53;101051.94;;;22.90;64.57
54194;BME280;40102;50.906;6.972;2023-09-08T09:24:38;101049.44;;;22.97;64.15
54194;BME280;40102;50.906;6.972;2023-09-08T09:27:09;101045.38;;;23.01;63.62
54194;BME280;40102;50.906;6.972;2023-09-08T09:29:44;101050.88;;;23.09;64.10
54194;BME280;40102;50.906;6.972;2023-09-08T09:32:11;101046.13;;;23.11;64.43
54194;BME280;40102;50.906;6.972;2023-09-08T09:34:47;101048.38;;;23.16;64.30
54194;BME280;40102;50.906;6.972;2023-09-08T09:37:14;101051.66;;;23.19;63.67
54194;BME280;40102;50.906;6.972;2023-09-08T09:39:39;101054.06;;;23.22;62.90
54194;BME280;40102;50.906;6.972;2023-09-08T09:42:04;101046.94;;;23.30;63.47
54194;BME280;40102;50.906;6.972;2023-09-08T09:44:30;101043.03;;;23.32;64.72
54194;BME280;40102;50.906;6.972;2023-09-08T09:46:56;101042.19;;;23.32;64.61
54194;BME280;40102;50.906;6.972;2023-09-08T09:49:21;101056.44;;;23.43;64.21
54194;BME280;40102;50.906;6.972;2023-09-08T09:51:52;101053.75;;;23.51;63.27
54194;BME280;40102;50.906;6.972;2023-09-08T09:54:18;101055.53;;;23.61;63.87
54194;BME280;40102;50.906;6.972;2023-09-08T09:56:44;101055.44;;;23.70;63.66
54194;BME280;40102;50.906;6.972;2023-09-08T09:59:12;101051.03;;;23.77;63.39
54194;BME280;40102;50.906;6.972;2023-09-08T10:01:39;101045.41;;;23.79;62.53
54194;BME280;40102;50.906;6.972;2023-09-08T10:04:06;101050.72;;;23.80;62.04
54194;BME280;40102;50.906;6.972;2023-09-08T10:06:35;101042.03;;;23.85;60.77
54194;BME280;40102;50.906;6.972;2023-09-08T10:09:02;101042.38;;;23.90;61.92
54194;BME280;40102;50.906;6.972;2023-09-08T10:11:47;101043.25;;;23.90;62.04
54194;BME280;40102;50.906;6.972;2023-09-08T10:14:15;101034.72;;;23.94;61.37
54194;BME280;40102;50.906;6.972;2023-09-08T10:16:43;101043.13;;;24.00;60.94
54194;BME280;40102;50.906;6.972;2023-09-08T10:19:10;101028.66;;;24.16;61.68
54194;BME280;40102;50.906;6.972;2023-09-08T10:21:59;101024.47;;;24.38;56.30
54194;BME280;40102;50.906;6.972;2023-09-08T10:24:27;101023.66;;;24.53;57.11
54194;BME280;40102;50.906;6.972;2023-09-08T10:27:01;101031.88;;;24.62;58.98
54194;BME280;40102;50.906;6.972;2023-09-08T10:29:29;101031.19;;;24.60;58.92
54194;BME280;40102;50.906;6.972;2023-09-08T10:31:55;101029.31;;;24.60;59.71
54194;BME280;40102;50.906;6.972;2023-09-08T10:34:23;101025.72;;;24.60;59.19
54194;BME280;40102;50.906;6.972;2023-09-08T10:36:49;101022.97;;;24.60;58.83
54194;BME280;40102;50.906;6.972;2023-09-08T10:39:31;101015.13;;;24.57;59.37
54194;BME280;40102;50.906;6.972;2023-09-08T10:42:23;101010.00;;;24.62;58.78
54194;BME280;40102;50.906;6.972;2023-09-08T10:47:19;101010.34;;;24.75;58.84
54194;BME280;40102;50.906;6.972;2023-09-08T10:49:47;101012.75;;;24.78;58.02
54194;BME280;40102;50.906;6.972;2023-09-08T10:52:12;101005.06;;;24.81;58.64
54194;BME280;40102;50.906;6.972;2023-09-08T10:54:45;101016.50;;;24.93;58.07
54194;BME280;40102;50.906;6.972;2023-09-08T10:57:17;101013.44;;;25.12;57.74
54194;BME280;40102;50.906;6.972;2023-09-08T10:59:56;101009.50;;;25.23;56.21
54194;BME280;40102;50.906;6.972;2023-09-08T11:02:42;101002.13;;;25.32;56.27
54194;BME280;40102;50.906;6.972;2023-09-08T11:05:12;100994.25;;;25.37;56.18
54194;BME280;40102;50.906;6.972;2023-09-08T11:07:39;101003.28;;;25.45;55.16
54194;BME280;40102;50.906;6.972;2023-09-08T11:10:06;101002.94;;;25.48;54.89
54194;BME280;40102;50.906;6.972;2023-09-08T11:12:32;101003.78;;;25.49;54.51
54194;BME280;40102;50.906;6.972;2023-09-08T11:15:07;101004.47;;;25.51;52.10
54194;BME280;40102;50.906;6.972;2023-09-08T11:17:37;101009.56;;;25.62;54.22
54194;BME280;40102;50.906;6.972;2023-09-08T11:20:07;101013.19;;;25.71;53.49
54194;BME280;40102;50.906;6.972;2023-09-08T11:22:37;101009.38;;;25.80;53.24
54194;BME280;40102;50.906;6.972;2023-09-08T11:25:03;101013.81;;;25.81;53.23
54194;BME280;40102;50.906;6.972;2023-09-08T11:27:31;101009.72;;;25.77;53.35
54194;BME280;40102;50.906;6.972;2023-09-08T11:29:57;101009.56;;;25.78;52.88
54194;BME280;40102;50.906;6.972;2023-09-08T11:32:23;101008.84;;;25.85;52.77
54194;BME280;40102;50.906;6.972;2023-09-08T11:34:52;101006.06;;;25.93;53.10
54194;BME280;40102;50.906;6.972;2023-09-08T11:37:18;100996.28;;;25.98;53.21
54194;BME280;40102;50.906;6.972;2023-09-08T11:39:44;101008.34;;;26.12;52.02
54194;BME280;40102;50.906;6.972;2023-09-08T11:42:13;101011.41;;;26.17;51.56
54194;BME280;40102;50.906;6.972;2023-09-08T11:44:40;101001.09;;;26.19;51.47
54194;BME280;40102;50.906;6.972;2023-09-08T11:47:07;101007.56;;;26.26;50.50
54194;BME280;40102;50.906;6.972;2023-09-08T11:49:38;101006.19;;;26.30;50.54
54194;BME280;40102;50.906;6.972;2023-09-08T11:52:04;101002.50;;;26.46;51.08
54194;BME280;40102;50.906;6.972;2023-09-08T11:54:31;100999.53;;;26.56;50.52
54194;BME280;40102;50.906;6.972;2023-09-08T11:57:02;100998.00;;;26.76;50.82
54194;BME280;40102;50.906;6.972;2023-09-08T11:59:30;101000.41;;;26.94;50.37
54194;BME280;40102;50.906;6.972;2023-09-08T12:01:56;101002.19;;;27.09;49.63
54194;BME280;40102;50.906;6.972;2023-09-08T12:04:22;101001.38;;;27.24;49.81
54194;BME280;40102;50.906;6.972;2023-09-08T12:06:48;101000.34;;;27.39;50.39
54194;BME280;40102;50.906;6.972;2023-09-08T12:09:14;101005.84;;;27.54;49.40
54194;BME280;40102;50.906;6.972;2023-09-08T12:11:39;101002.84;;;27.64;47.94
54194;BME280;40102;50.906;6.972;2023-09-08T12:14:11;101004.66;;;27.71;48.00
54194;BME280;40102;50.906;6.972;2023-09-08T12:16:38;100994.22;;;27.82;48.26
54194;BME280;40102;50.906;6.972;2023-09-08T12:19:03;100998.94;;;28.02;47.85
54194;BME280;40102;50.906;6.972;2023-09-08T12:21:29;100992.56;;;28.17;46.99
54194;BME280;40102;50.906;6.972;2023-09-08T12:23:57;100995.56;;;28.22;47.09
54194;BME280;40102;50.906;6.972;2023-09-08T12:26:24;100989.59;;;28.33;47.64
54194;BME280;40102;50.906;6.972;2023-09-08T12:28:50;100991.38;;;28.41;48.29
54194;BME280;40102;50.906;6.972;2023-09-08T12:31:17;100991.31;;;28.55;47.34
54194;BME280;40102;50.906;6.972;2023-09-08T12:33:43;100987.84;;;28.68;46.91
54194;BME280;40102;50.906;6.972;2023-09-08T12:36:19;100988.25;;;28.86;47.05
54194;BME280;40102;50.906;6.972;2023-09-08T12:38:49;100983.31;;;29.03;46.58
54194;BME280;40102;50.906;6.972;2023-09-08T12:41:15;100975.63;;;29.20;45.97
54194;BME280;40102;50.906;6.972;2023-09-08T12:43:41;100977.81;;;29.31;44.89
54194;BME280;40102;50.906;6.972;2023-09-08T12:46:06;100975.09;;;29.38;45.22
54194;BME280;40102;50.906;6.972;2023-09-08T12:48:32;100978.50;;;29.40;45.80
54194;BME280;40102;50.906;6.972;2023-09-08T12:50:57;100984.13;;;29.53;44.02
54194;BME280;40102;50.906;6.972;2023-09-08T12:53:23;100979.31;;;29.61;44.61
54194;BME280;40102;50.906;6.972;2023-09-08T12:55:49;100977.22;;;29.70;43.94